Time;durP1;ratioP1;P1;durP2;ratioP2;P2;SDS_P1;SDS_P2;PMS_P1;PMS_P2;Temp;Humidity;BMP_temperature;BMP_pressure;BME280_temperature;BME280_humidity;BME280_pressure;Samples;Min_cycle;Max_cycle;Signal;HPM_P1;HPM_P2
2022/12/21 00:00:17;;;;;;;44.65;24.20;;;;;;;4.20;88.41;100712.88;7400806;19;20082;-75
2022/12/21 00:02:45;;;;;;;39.20;21.42;;;;;;;4.19;88.21;100713.75;7400749;19;20018;-70
2022/12/21 00:05:13;;;;;;;39.67;21.67;;;;;;;4.17;88.69;100712.91;7400304;19;20082;-68
2022/12/21 00:07:42;;;;;;;46.50;22.85;;;;;;;4.21;89.68;100711.19;7400218;19;20032;-73
2022/12/21 00:10:12;;;;;;;43.15;21.60;;;;;;;4.22;89.48;100707.69;7400409;19;20086;-73
2022/12/21 00:12:43;;;;;;;42.13;21.67;;;;;;;4.21;89.16;100708.59;7400387;19;20074;-73
2022/12/21 00:15:12;;;;;;;41.85;22.65;;;;;;;4.20;89.42;100709.44;7397708;19;20489;-73
2022/12/21 00:17:40;;;;;;;41.15;21.80;;;;;;;4.17;89.38;100699.03;7399978;19;20018;-73
2022/12/21 00:20:11;;;;;;;40.50;22.10;;;;;;;4.15;89.71;100703.38;7397458;19;20098;-73
2022/12/21 00:22:40;;;;;;;42.75;23.10;;;;;;;4.11;89.63;100702.47;7399895;19;20062;-73
2022/12/21 00:25:09;;;;;;;45.20;22.83;;;;;;;4.08;89.93;100703.34;7399823;19;20086;-74
2022/12/21 00:27:37;;;;;;;39.47;21.50;;;;;;;4.07;89.86;100700.75;7397613;19;20110;-73
2022/12/21 00:30:10;;;;;;;46.28;23.67;;;;;;;4.03;90.15;100693.78;7399941;19;20149;-73
2022/12/21 00:32:39;;;;;;;47.63;23.80;;;;;;;3.99;90.42;100687.69;7400184;19;20014;-73
2022/12/21 00:35:08;;;;;;;43.90;22.83;;;;;;;3.97;90.51;100689.44;7397213;19;20014;-74
2022/12/21 00:37:36;;;;;;;46.40;23.10;;;;;;;3.95;90.73;100690.28;7399674;19;20086;-73
2022/12/21 00:40:05;;;;;;;44.70;22.88;;;;;;;3.94;90.62;100689.41;7399557;19;20014;-72
2022/12/21 00:42:34;;;;;;;44.22;23.60;;;;;;;3.91;91.12;100684.22;7399568;19;20022;-73
2022/12/21 00:45:02;;;;;;;43.67;23.42;;;;;;;3.89;91.07;100684.22;7399432;19;20011;-73
2022/12/21 00:47:33;;;;;;;44.08;23.70;;;;;;;3.86;91.10;100681.59;7396522;19;20015;-74
2022/12/21 00:50:01;;;;;;;39.63;22.13;;;;;;;3.84;91.50;100680.72;7399610;19;20082;-73
2022/12/21 00:52:30;;;;;;;42.53;22.80;;;;;;;3.84;91.97;100680.72;7399263;19;20025;-73
2022/12/21 00:54:58;;;;;;;45.67;24.35;;;;;;;3.82;92.13;100677.25;7397235;19;20074;-74
2022/12/21 00:57:27;;;;;;;42.80;23.33;;;;;;;3.81;92.17;100677.25;7396668;19;20021;-73
2022/12/21 00:59:55;;;;;;;45.97;24.75;;;;;;;3.77;92.78;100665.97;7398972;19;20082;-74
2022/12/21 01:02:23;;;;;;;45.33;23.40;;;;;;;3.74;93.03;100663.34;7398531;19;20033;-74
2022/12/21 01:04:54;;;;;;;46.85;23.95;;;;;;;3.72;93.50;100670.28;7399018;19;20397;-74
2022/12/21 01:07:23;;;;;;;46.40;24.70;;;;;;;3.70;93.92;100669.41;7396302;19;20018;-74
2022/12/21 01:09:51;;;;;;;46.88;24.45;;;;;;;3.68;94.27;100664.19;7398256;19;20082;-74
2022/12/21 01:12:20;;;;;;;47.95;24.52;;;;;;;3.66;94.38;100665.91;7398591;19;20365;-73
2022/12/21 01:14:48;;;;;;;43.08;22.48;;;;;;;3.60;94.64;100663.28;7397465;19;20023;-73
2022/12/21 01:17:17;;;;;;;45.83;23.30;;;;;;;3.61;95.21;100659.81;7396452;19;20081;-73
2022/12/21 01:19:45;;;;;;;46.47;24.23;;;;;;;3.59;95.41;100654.63;7398320;19;20082;-73
2022/12/21 01:22:16;;;;;;;48.08;25.30;;;;;;;3.58;95.65;100659.81;7398252;19;20019;-74
2022/12/21 01:24:45;;;;;;;45.13;23.42;;;;;;;3.57;95.65;100661.53;7398808;19;20021;-74
2022/12/21 01:27:13;;;;;;;50.58;24.42;;;;;;;3.57;95.84;100671.06;7395812;19;20070;-73
2022/12/21 01:29:41;;;;;;;51.42;25.17;;;;;;;3.57;95.99;100671.06;7397605;19;20548;-74
2022/12/21 01:32:10;;;;;;;49.13;24.00;;;;;;;3.56;96.19;100664.13;7396544;19;20023;-74
2022/12/21 01:34:38;;;;;;;48.17;24.77;;;;;;;3.55;96.54;100658.09;7396808;19;20070;-74
2022/12/21 01:37:07;;;;;;;46.70;23.58;;;;;;;3.59;96.64;100661.56;7395596;19;20021;-73
2022/12/21 01:39:38;;;;;;;50.22;24.42;;;;;;;3.58;96.55;100657.22;7397552;19;20078;-74
2022/12/21 01:42:06;;;;;;;49.58;25.70;;;;;;;3.58;96.80;100657.22;7397228;19;20010;-74
2022/12/21 01:45:04;;;;;;;48.22;23.95;;;;;;;3.59;96.92;100656.38;7397513;19;20412;-73
2022/12/21 01:47:39;;;;;;;50.92;25.92;;;;;;;3.58;96.94;100657.22;7394229;19;20022;-73
2022/12/21 01:50:27;;;;;;;51.13;24.58;;;;;;;3.58;96.88;100649.44;7397705;19;20023;-74
2022/12/21 01:52:57;;;;;;;46.35;24.08;;;;;;;3.52;96.73;100636.44;7396974;19;20086;-73
2022/12/21 01:55:29;;;;;;;51.58;25.13;;;;;;;3.56;96.81;100651.16;7395436;19;20030;-74
2022/12/21 01:57:58;;;;;;;50.80;25.38;;;;;;;3.56;97.23;100656.34;7396686;19;20015;-73
2022/12/21 02:00:26;;;;;;;48.08;24.20;;;;;;;3.55;97.47;100646.81;7396538;19;20020;-74
2022/12/21 02:02:59;;;;;;;47.50;25.63;;;;;;;3.55;97.27;100649.41;7396476;19;20021;-74
2022/12/21 02:05:31;;;;;;;47.53;24.45;;;;;;;3.54;97.75;100645.09;7396306;19;20127;-73
2022/12/21 02:08:02;;;;;;;48.97;24.58;;;;;;;3.52;97.53;100642.47;7396320;19;20022;-74
2022/12/21 02:10:33;;;;;;;49.25;26.25;;;;;;;3.52;97.61;100632.09;7396226;19;20434;-75
2022/12/21 02:13:13;;;;;;;49.35;25.70;;;;;;;3.54;97.85;100632.13;7397670;19;20074;-72
2022/12/21 02:16:07;;;;;;;47.63;25.08;;;;;;;3.53;97.86;100640.78;7395183;19;20023;-73
2022/12/21 02:18:53;;;;;;;48.05;24.65;;;;;;;3.52;98.43;100631.25;7396142;19;20036;-73
2022/12/21 02:21:26;;;;;;;46.40;25.15;;;;;;;3.51;98.17;100626.91;7395059;19;20023;-73
2022/12/21 02:24:31;;;;;;;49.03;26.58;;;;;;;3.49;98.54;100624.31;7396744;19;20019;-73
2022/12/21 02:27:23;;;;;;;51.20;25.20;;;;;;;3.50;98.75;100630.38;7394115;19;20082;-72
2022/12/21 02:30:09;;;;;;;51.65;24.40;;;;;;;3.46;98.90;100626.88;7396498;19;20086;-73
2022/12/21 02:32:57;;;;;;;50.95;24.98;;;;;;;3.41;99.18;100610.44;7396264;19;20081;-73
2022/12/21 02:35:39;;;;;;;49.42;25.02;;;;;;;3.41;99.30;100611.31;7395023;19;20032;-72
2022/12/21 02:38:20;;;;;;;49.97;26.38;;;;;;;3.44;99.80;100613.06;7396036;19;20014;-73
2022/12/21 02:41:00;;;;;;;54.55;25.88;;;;;;;3.43;99.96;100611.31;7395362;19;20017;-73
2022/12/21 02:46:24;;;;;;;53.42;26.85;;;;;;;3.43;100.00;100612.16;7394213;19;20014;-70
2022/12/21 02:49:00;;;;;;;53.42;26.90;;;;;;;3.43;100.00;100612.16;7394983;19;20545;-72
2022/12/21 02:51:34;;;;;;;55.47;26.58;;;;;;;3.45;100.00;100611.31;7394100;19;20078;-73
2022/12/21 02:54:04;;;;;;;57.45;26.83;;;;;;;3.45;100.00;100611.31;7395531;19;20010;-73
2022/12/21 02:56:32;;;;;;;55.35;25.60;;;;;;;3.43;100.00;100604.38;7393813;19;20081;-73
2022/12/21 02:59:02;;;;;;;55.90;25.90;;;;;;;3.45;100.00;100611.31;7394866;19;20021;-73
2022/12/21 03:01:46;;;;;;;52.80;25.98;;;;;;;3.42;100.00;100605.28;7395115;19;20082;-74
2022/12/21 03:04:43;;;;;;;58.20;27.33;;;;;;;3.48;100.00;100607.03;7394809;19;20078;-74
2022/12/21 03:07:30;;;;;;;58.50;27.30;;;;;;;3.48;100.00;100612.22;7393386;19;20024;-73
2022/12/21 03:10:07;;;;;;;53.80;25.92;;;;;;;3.47;100.00;100605.28;7394939;19;20350;-71
2022/12/21 03:12:48;;;;;;;57.92;27.38;;;;;;;3.51;100.00;100606.16;7395225;19;20014;-73
2022/12/21 03:15:23;;;;;;;54.13;26.92;;;;;;;3.52;100.00;100600.97;7398451;19;20028;-71
2022/12/21 03:17:57;;;;;;;50.05;26.02;;;;;;;3.54;100.00;100601.00;7399446;19;20490;-72
2022/12/21 03:20:34;;;;;;;49.20;25.55;;;;;;;3.55;100.00;100598.41;7404981;19;20365;-72
2022/12/21 03:23:07;;;;;;;53.35;25.60;;;;;;;3.57;100.00;100596.69;7402534;19;20082;-73
2022/12/21 03:25:41;;;;;;;53.08;24.77;;;;;;;3.60;100.00;100595.81;7399120;19;20074;-72
2022/12/21 03:28:13;;;;;;;;;;;;;;;3.62;100.00;100593.25;7403138;19;20049;-73
2022/12/21 03:30:46;;;;;;;51.95;25.88;;;;;;;3.62;100.00;100599.31;7399249;19;19922;-72
2022/12/21 03:33:18;;;;;;;50.00;24.95;;;;;;;3.64;100.00;100596.72;7401161;19;20424;-72
2022/12/21 03:35:54;;;;;;;51.45;25.17;;;;;;;3.65;100.00;100596.75;7399429;19;20090;-72
2022/12/21 03:38:28;;;;;;;48.83;26.92;;;;;;;3.67;100.00;100591.56;7399860;19;20019;-72
2022/12/21 03:41:00;;;;;;;53.33;26.37;;;;;;;3.67;100.00;100602.78;7401635;19;20011;-72
2022/12/21 03:43:31;;;;;;;51.47;26.65;;;;;;;3.67;100.00;100597.59;7401982;19;20018;-72
2022/12/21 03:46:03;;;;;;;54.33;26.17;;;;;;;3.69;100.00;100595.88;7399839;19;20086;-72
2022/12/21 03:48:38;;;;;;;54.17;27.48;;;;;;;3.69;100.00;100595.00;7401673;19;20078;-72
2022/12/21 03:51:16;;;;;;;61.97;28.50;;;;;;;3.69;100.00;100592.41;7398165;19;20485;-72
2022/12/21 03:53:51;;;;;;;58.05;27.83;;;;;;;3.69;100.00;100589.81;7401165;19;20014;-72
2022/12/21 03:56:26;;;;;;;53.85;27.83;;;;;;;3.69;100.00;100595.88;7398099;19;20015;-71
2022/12/21 03:58:55;;;;;;;51.97;25.83;;;;;;;3.68;100.00;100588.09;7401243;19;20070;-72
2022/12/21 04:01:32;;;;;;;54.28;27.38;;;;;;;3.69;100.00;100587.22;7400704;19;20018;-72
2022/12/21 04:04:06;;;;;;;55.20;25.88;;;;;;;3.69;100.00;100590.69;7398008;19;20078;-73
2022/12/21 04:06:40;;;;;;;50.08;25.30;;;;;;;3.69;100.00;100585.50;7397603;19;20469;-72
2022/12/21 04:09:09;;;;;;;54.17;26.55;;;;;;;3.70;100.00;100588.94;7401003;19;20018;-72
2022/12/21 04:14:19;;;;;;;57.83;26.35;;;;;;;3.69;100.00;100593.28;7400024;19;20549;-72
2022/12/21 04:16:48;;;;;;;57.88;28.80;;;;;;;3.69;100.00;100589.81;7397117;19;20086;-73
2022/12/21 04:22:00;;;;;;;57.55;27.17;;;;;;;3.75;100.00;100585.53;7400298;19;20491;-73
2022/12/21 04:29:57;;;;;;;61.63;29.25;;;;;;;3.82;100.00;100572.59;7399602;19;20014;-72
2022/12/21 04:32:25;;;;;;;60.05;29.42;;;;;;;3.83;100.00;100569.09;7399334;19;20086;-73
2022/12/21 04:34:54;;;;;;;54.65;27.48;;;;;;;3.85;100.00;100572.56;7398776;19;20556;-72
2022/12/21 04:37:31;;;;;;;63.35;28.60;;;;;;;3.86;100.00;100567.38;7397348;19;20082;-72
2022/12/21 04:39:59;;;;;;;60.00;28.27;;;;;;;3.90;100.00;100573.44;7397709;19;20006;-72
2022/12/21 04:42:28;;;;;;;66.28;29.40;;;;;;;3.91;100.00;100570.84;7399372;19;20086;-73
2022/12/21 04:44:57;;;;;;;54.30;28.20;;;;;;;3.94;100.00;100575.19;7399139;19;20126;-72
2022/12/21 04:47:25;;;;;;;54.80;28.17;;;;;;;3.95;100.00;100569.13;7397008;19;20078;-73
2022/12/21 04:49:54;;;;;;;57.53;28.45;;;;;;;3.99;100.00;100572.63;7399046;19;20026;-72
2022/12/21 04:52:25;;;;;;;61.22;28.50;;;;;;;4.01;100.00;100563.13;7398760;19;20036;-73
2022/12/21 04:54:53;;;;;;;58.05;28.83;;;;;;;4.02;100.00;100565.72;7399025;19;20079;-72
2022/12/21 04:57:22;;;;;;;58.38;27.98;;;;;;;4.06;100.00;100554.47;7396202;19;20431;-72
2022/12/21 04:59:50;;;;;;;56.95;29.27;;;;;;;4.09;100.00;100556.19;7399489;19;20027;-72
2022/12/21 05:02:19;;;;;;;57.95;27.05;;;;;;;4.11;100.00;100567.47;7398445;19;20509;-73
2022/12/21 05:04:47;;;;;;;58.60;28.13;;;;;;;4.15;100.00;100563.13;7398502;19;20074;-72
2022/12/21 05:07:16;;;;;;;54.88;28.33;;;;;;;4.16;100.00;100564.88;7395838;19;20015;-73
2022/12/21 05:09:47;;;;;;;65.00;29.55;;;;;;;4.18;100.00;100560.53;7398409;19;20014;-73
2022/12/21 05:12:15;;;;;;;56.65;29.90;;;;;;;4.21;100.00;100557.97;7398672;19;20015;-73
2022/12/21 05:14:50;;;;;;;59.63;28.90;;;;;;;4.22;100.00;100555.34;7397842;19;20094;-73
2022/12/21 05:17:19;;;;;;;54.53;27.33;;;;;;;4.26;100.00;100558.84;7395964;19;20564;-74
2022/12/21 05:19:47;;;;;;;53.83;28.48;;;;;;;4.28;100.00;100554.47;7397850;19;20031;-73
2022/12/21 05:22:17;;;;;;;56.72;27.73;;;;;;;4.30;100.00;100557.09;7397565;19;20017;-73
2022/12/21 05:24:48;;;;;;;62.13;28.92;;;;;;;4.30;100.00;100559.72;7396218;19;20022;-73
2022/12/21 05:27:16;;;;;;;53.58;27.52;;;;;;;4.31;100.00;100554.50;7394723;19;20096;-71
2022/12/21 05:29:45;;;;;;;56.58;28.50;;;;;;;4.32;100.00;100557.97;7397755;19;20089;-72
2022/12/21 05:32:14;;;;;;;62.95;29.17;;;;;;;4.32;100.00;100551.06;7397386;19;20077;-73
2022/12/21 05:34:42;;;;;;;59.15;28.70;;;;;;;4.33;100.00;100551.91;7397432;19;20025;-72
2022/12/21 05:37:11;;;;;;;55.13;27.77;;;;;;;4.35;100.00;100564.03;7395357;19;20074;-72
2022/12/21 05:39:39;;;;;;;56.75;27.55;;;;;;;4.35;100.00;100563.16;7397125;19;20014;-72
2022/12/21 05:42:10;;;;;;;62.03;28.50;;;;;;;4.36;100.00;100563.16;7394417;19;20022;-73
2022/12/21 05:44:38;;;;;;;52.63;27.13;;;;;;;4.36;100.00;100565.75;7394538;19;20482;-73
2022/12/21 05:47:07;;;;;;;53.85;26.77;;;;;;;4.36;100.00;100562.28;7394731;19;20086;-73
2022/12/21 05:49:35;;;;;;;60.50;28.25;;;;;;;4.38;100.00;100555.38;7396454;19;20070;-73
2022/12/21 05:52:04;;;;;;;55.88;28.70;;;;;;;4.38;100.00;100565.75;7396119;19;20468;-71
2022/12/21 05:54:33;;;;;;;57.53;27.88;;;;;;;4.39;100.00;100563.16;7396756;19;20018;-72
2022/12/21 05:57:01;;;;;;;53.22;27.80;;;;;;;4.40;100.00;100557.09;7394420;19;20070;-72
2022/12/21 05:59:32;;;;;;;52.47;27.85;;;;;;;4.40;100.00;100559.69;7396552;19;20015;-73
2022/12/21 06:02:01;;;;;;;57.28;28.42;;;;;;;4.43;100.00;100557.97;7396059;19;20520;-72
2022/12/21 06:04:30;;;;;;;55.45;28.17;;;;;;;4.45;100.00;100564.03;7397178;19;20074;-73
2022/12/21 06:06:58;;;;;;;53.83;27.25;;;;;;;4.45;100.00;100564.91;7395270;19;20048;-73
2022/12/21 06:09:27;;;;;;;55.58;26.95;;;;;;;4.46;100.00;100557.97;7395096;19;20477;-73
2022/12/21 06:11:55;;;;;;;56.88;27.55;;;;;;;4.49;100.00;100568.38;7396184;19;20018;-73
2022/12/21 06:14:23;;;;;;;52.92;26.77;;;;;;;4.50;100.00;100568.38;7395326;19;20074;-72
2022/12/21 06:16:54;;;;;;;55.88;28.38;;;;;;;4.51;100.00;100566.63;7394917;19;20014;-73
2022/12/21 06:19:23;;;;;;;58.85;28.92;;;;;;;4.52;100.00;100561.41;7394868;19;20493;-73
2022/12/21 06:21:51;;;;;;;52.28;27.80;;;;;;;4.54;100.00;100564.91;7395236;19;20018;-73
2022/12/21 06:24:21;;;;;;;58.55;28.75;;;;;;;4.56;100.00;100562.28;7395847;19;20082;-73
2022/12/21 06:26:49;;;;;;;55.35;27.73;;;;;;;4.55;100.00;100565.78;7394160;19;20373;-72
2022/12/21 06:29:18;;;;;;;57.78;28.90;;;;;;;4.57;100.00;100567.50;7394925;19;20086;-72
2022/12/21 06:31:46;;;;;;;60.35;28.38;;;;;;;4.59;100.00;100569.22;7394940;19;20095;-72
2022/12/21 06:34:17;;;;;;;53.35;26.83;;;;;;;4.59;100.00;100567.50;7395131;19;20091;-72
2022/12/21 06:36:47;;;;;;;59.75;29.83;;;;;;;4.60;100.00;100560.56;7394732;19;20380;-73
2022/12/21 06:39:15;;;;;;;55.10;27.58;;;;;;;4.62;100.00;100561.44;7393917;19;20057;-72
2022/12/21 06:41:43;;;;;;;54.22;28.63;;;;;;;4.64;100.00;100573.56;7394741;19;20077;-74
2022/12/21 06:44:12;;;;;;;60.13;30.02;;;;;;;4.65;100.00;100575.31;7393476;19;20028;-73
2022/12/21 06:46:40;;;;;;;59.50;29.58;;;;;;;4.67;100.00;100577.91;7393780;19;20014;-73
2022/12/21 06:49:09;;;;;;;62.45;28.95;;;;;;;4.68;100.00;100572.69;7395257;19;20078;-73
2022/12/21 06:51:40;;;;;;;58.30;29.90;;;;;;;4.70;100.00;100586.56;7394920;19;20019;-72
2022/12/21 06:54:09;;;;;;;58.03;30.13;;;;;;;4.73;100.00;100588.28;7393149;19;20014;-72
2022/12/21 06:56:37;;;;;;;57.33;29.00;;;;;;;4.74;100.00;100579.63;7393719;19;20032;-72
2022/12/21 06:59:06;;;;;;;61.30;28.95;;;;;;;4.78;100.00;100570.06;7392846;19;20431;-71
2022/12/21 07:01:36;;;;;;;59.83;30.20;;;;;;;4.79;100.00;100575.31;7394105;19;20039;-73
2022/12/21 07:04:05;;;;;;;58.70;29.80;;;;;;;4.82;100.00;100569.22;7394777;19;20079;-71
2022/12/21 07:06:34;;;;;;;58.92;29.80;;;;;;;4.84;100.00;100562.28;7392615;19;20501;-72
2022/12/21 07:09:05;;;;;;;56.33;29.58;;;;;;;4.85;100.00;100571.81;7394417;19;20018;-72
2022/12/21 07:11:34;;;;;;;61.50;28.27;;;;;;;4.88;100.00;100574.44;7393239;19;20158;-72
2022/12/21 07:14:02;;;;;;;58.42;29.77;;;;;;;4.89;100.00;100568.34;7393910;19;20085;-74
2022/12/21 07:16:31;;;;;;;53.67;28.17;;;;;;;4.89;100.00;100569.22;7392107;19;20014;-74
2022/12/21 07:18:59;;;;;;;53.50;28.63;;;;;;;4.92;100.00;100567.50;7393534;19;20450;-72
2022/12/21 07:21:28;;;;;;;52.47;28.05;;;;;;;4.93;100.00;100570.09;7393827;19;20086;-71
2022/12/21 07:23:57;;;;;;;55.05;28.08;;;;;;;4.93;100.00;100577.88;7393225;19;20388;-71
2022/12/21 07:26:28;;;;;;;51.85;28.40;;;;;;;4.93;100.00;100577.88;7391697;19;20074;-73
2022/12/21 07:28:57;;;;;;;54.60;27.05;;;;;;;4.96;100.00;100588.28;7392197;19;20473;-72
2022/12/21 07:31:27;;;;;;;53.53;27.70;;;;;;;4.98;100.00;100583.06;7392898;19;20182;-72
2022/12/21 07:33:56;;;;;;;48.10;26.73;;;;;;;4.99;100.00;100579.59;7393642;19;20029;-72
2022/12/21 07:36:25;;;;;;;55.13;28.70;;;;;;;4.98;100.00;100576.16;7391979;19;20481;-73
2022/12/21 07:38:54;;;;;;;52.72;27.50;;;;;;;5.01;100.00;100577.88;7392961;19;20022;-71
2022/12/21 07:41:23;;;;;;;55.20;28.58;;;;;;;5.01;100.00;100578.72;7392310;19;20011;-71
2022/12/21 07:43:54;;;;;;;53.03;28.33;;;;;;;5.04;100.00;100589.13;7391546;19;20014;-72
2022/12/21 07:46:23;;;;;;;53.42;28.05;;;;;;;5.06;100.00;100587.38;7391544;19;20070;-73
2022/12/21 07:48:52;;;;;;;55.33;28.77;;;;;;;5.08;100.00;100584.81;7393539;19;20078;-74
2022/12/21 07:51:20;;;;;;;57.85;29.42;;;;;;;5.11;100.00;100579.59;7393467;19;20018;-73
2022/12/21 07:53:49;;;;;;;59.92;30.20;;;;;;;5.12;100.00;100576.13;7391324;19;20066;-73
2022/12/21 07:56:19;;;;;;;54.58;29.73;;;;;;;5.16;100.00;100582.19;7390562;19;20339;-72
2022/12/21 07:58:48;;;;;;;54.40;29.35;;;;;;;5.17;100.00;100581.31;7393943;19;20082;-72
2022/12/21 08:01:20;;;;;;;53.83;29.08;;;;;;;5.19;100.00;100585.66;7393492;19;20083;-72
2022/12/21 08:03:51;;;;;;;56.45;28.80;;;;;;;5.20;100.00;100589.97;7394038;19;20031;-71
2022/12/21 08:06:20;;;;;;;54.15;29.42;;;;;;;5.24;100.00;100598.63;7399584;19;20041;-71
2022/12/21 08:08:48;;;;;;;51.45;27.77;;;;;;;5.25;100.00;100592.56;7397354;19;20011;-73
2022/12/21 08:11:19;;;;;;;49.38;27.23;;;;;;;5.28;100.00;100597.78;7400428;19;20022;-72
2022/12/21 08:13:49;;;;;;;54.28;28.05;;;;;;;5.32;100.00;100593.41;7399657;19;20018;-72
2022/12/21 08:16:21;;;;;;;51.08;28.13;;;;;;;5.33;100.00;100597.75;7396735;19;20041;-72
2022/12/21 08:18:49;;;;;;;52.28;27.38;;;;;;;5.33;100.00;100590.81;7400669;19;20074;-73
2022/12/21 08:21:19;;;;;;;48.72;27.52;;;;;;;5.38;100.00;100604.69;7400153;19;20027;-73
2022/12/21 08:23:49;;;;;;;43.97;25.90;;;;;;;5.39;100.00;100610.72;7399094;19;20019;-74
2022/12/21 08:26:17;;;;;;;51.30;28.38;;;;;;;5.42;100.00;100617.66;7397406;19;20086;-72
2022/12/21 08:28:53;;;;;;;41.00;25.85;;;;;;;5.44;100.00;100616.78;7397844;19;20477;-72
2022/12/21 08:31:24;;;;;;;42.13;24.75;;;;;;;5.45;100.00;100612.47;7399728;19;20018;-72
2022/12/21 08:33:52;;;;;;;45.72;26.10;;;;;;;5.48;100.00;100617.66;7399417;19;20074;-72
2022/12/21 08:36:24;;;;;;;47.10;26.95;;;;;;;5.49;100.00;100612.44;7397671;19;20082;-73
2022/12/21 08:38:53;;;;;;;46.67;25.67;;;;;;;5.50;100.00;100606.38;7400297;19;20122;-71
2022/12/21 08:41:21;;;;;;;42.13;25.27;;;;;;;5.53;100.00;100614.19;7399220;19;20018;-72
2022/12/21 08:43:50;;;;;;;48.55;26.35;;;;;;;5.55;100.00;100603.75;7400225;19;20035;-72
2022/12/21 08:46:18;;;;;;;44.22;25.52;;;;;;;5.58;100.00;100613.28;7397910;19;20054;-71
2022/12/21 08:48:49;;;;;;;45.78;25.25;;;;;;;5.59;100.00;100615.03;7399581;19;20103;-72
2022/12/21 08:51:18;;;;;;;42.25;25.35;;;;;;;5.61;100.00;100614.16;7398667;19;20011;-72
2022/12/21 08:53:47;;;;;;;43.72;26.20;;;;;;;5.64;100.00;100610.69;7398467;19;20082;-72
2022/12/21 08:56:15;;;;;;;39.42;24.67;;;;;;;5.65;100.00;100613.25;7397523;19;20031;-72
2022/12/21 08:58:44;;;;;;;46.20;26.42;;;;;;;5.68;100.00;100609.78;7396063;19;20014;-72
2022/12/21 09:01:12;;;;;;;41.97;24.58;;;;;;;5.69;100.00;100609.78;7398255;19;20540;-71
2022/12/21 09:03:41;;;;;;;40.72;24.58;;;;;;;5.73;100.00;100612.38;7398686;19;20525;-72
2022/12/21 09:06:12;;;;;;;49.47;25.65;;;;;;;5.75;100.00;100603.69;7397363;19;20018;-71
2022/12/21 09:08:40;;;;;;;42.10;24.13;;;;;;;5.77;100.00;100616.69;7397047;19;20074;-72
2022/12/21 09:11:11;;;;;;;39.65;22.60;;;;;;;5.81;100.00;100610.59;7398204;19;20089;-72
2022/12/21 09:13:40;;;;;;;39.25;23.58;;;;;;;5.83;100.00;100612.31;7396562;19;20427;-72
2022/12/21 09:16:14;;;;;;;34.13;21.75;;;;;;;5.87;100.00;100621.84;7394336;19;20086;-72
2022/12/21 09:18:43;;;;;;;39.47;22.33;;;;;;;5.90;100.00;100625.31;7397863;19;20515;-72
2022/12/21 09:21:15;;;;;;;36.97;23.88;;;;;;;5.90;100.00;100623.56;7397567;19;20501;-73
2022/12/21 09:23:44;;;;;;;40.80;23.75;;;;;;;5.93;100.00;100614.91;7397726;19;20419;-73
2022/12/21 09:26:14;;;;;;;36.92;22.23;;;;;;;5.93;100.00;100628.78;7396763;19;20022;-74
2022/12/21 09:28:42;;;;;;;36.08;22.23;;;;;;;5.94;100.00;100617.50;7395557;19;20015;-71
2022/12/21 09:31:13;;;;;;;35.75;22.45;;;;;;;5.95;100.00;100618.34;7397249;19;20501;-73
2022/12/21 09:33:43;;;;;;;41.47;23.90;;;;;;;5.97;100.00;100617.47;7398316;19;20014;-72
2022/12/21 09:36:15;;;;;;;35.92;22.70;;;;;;;5.99;100.00;100615.75;7396033;19;20023;-71
2022/12/21 09:38:43;;;;;;;37.15;22.45;;;;;;;6.01;100.00;100616.59;7397295;19;20022;-72
2022/12/21 09:41:35;;;;;;;34.97;21.27;;;;;;;6.01;100.00;100611.38;7396787;19;20553;-72
2022/12/21 09:44:21;;;;;;;33.03;21.50;;;;;;;6.06;100.00;100618.34;7395866;19;20083;-72
2022/12/21 09:46:53;;;;;;;41.13;22.98;;;;;;;6.07;100.00;100614.88;7395846;19;20018;-71
2022/12/21 09:49:25;;;;;;;36.85;21.42;;;;;;;6.09;100.00;100607.88;7397501;19;20070;-73
2022/12/21 09:52:00;;;;;;;34.65;21.20;;;;;;;6.11;100.00;100600.94;7395250;19;20430;-71
2022/12/21 09:54:37;;;;;;;32.00;20.38;;;;;;;6.13;100.00;100597.44;7396604;19;20074;-72
2022/12/21 09:57:08;;;;;;;31.08;20.73;;;;;;;6.16;100.00;100591.34;7395525;19;20427;-73
2022/12/21 09:59:37;;;;;;;32.13;20.10;;;;;;;6.19;100.00;100596.53;7396568;19;20018;-73
2022/12/21 10:02:17;;;;;;;34.28;19.85;;;;;;;6.22;100.00;100598.25;7395777;19;20031;-72
2022/12/21 10:04:58;;;;;;;32.00;20.25;;;;;;;6.23;100.00;100594.78;7395716;19;20014;-71
2022/12/21 10:07:50;;;;;;;33.33;21.13;;;;;;;6.28;100.00;100593.00;7394502;19;20081;-71
2022/12/21 10:10:27;;;;;;;34.20;20.83;;;;;;;6.31;100.00;100582.59;7394255;19;20549;-72
2022/12/21 10:13:04;;;;;;;35.58;20.23;;;;;;;6.32;100.00;100577.34;7396821;19;20018;-72
2022/12/21 10:15:38;;;;;;;33.72;20.38;;;;;;;6.36;100.00;100566.03;7394186;19;20074;-72
2022/12/21 10:18:16;;;;;;;35.40;20.20;;;;;;;6.38;100.00;100563.41;7394471;19;20431;-73
2022/12/21 10:20:56;;;;;;;32.65;19.65;;;;;;;6.42;100.00;100565.13;7396249;19;20082;-72
2022/12/21 10:23:30;;;;;;;31.88;19.35;;;;;;;6.44;100.00;100579.00;7395790;19;20037;-72
2022/12/21 10:26:00;;;;;;;33.20;19.30;;;;;;;6.47;100.00;100579.00;7394152;19;20074;-72
2022/12/21 10:28:39;;;;;;;32.92;19.13;;;;;;;6.48;100.00;100585.94;7392869;19;20434;-72
2022/12/21 10:31:09;;;;;;;33.90;20.05;;;;;;;6.48;100.00;100579.84;7394091;19;20086;-71
2022/12/21 10:33:42;;;;;;;32.70;20.77;;;;;;;6.48;100.00;100575.53;7394356;19;20074;-73
2022/12/21 10:36:16;;;;;;;27.13;17.67;;;;;;;6.51;100.00;100564.19;7394626;19;20022;-73
2022/12/21 10:38:47;;;;;;;31.80;18.85;;;;;;;6.53;100.00;100567.63;7394415;19;20086;-71
2022/12/21 10:41:21;;;;;;;33.20;18.05;;;;;;;6.54;100.00;100568.53;7394532;19;20517;-72
2022/12/21 10:43:52;;;;;;;32.40;18.95;;;;;;;6.55;100.00;100571.13;7394159;19;20414;-73
2022/12/21 10:46:22;;;;;;;30.65;19.48;;;;;;;6.54;100.00;100563.31;7393488;19;20485;-70
2022/12/21 10:48:54;;;;;;;32.80;19.67;;;;;;;6.54;100.00;100564.16;7394308;19;20385;-71
2022/12/21 10:51:32;;;;;;;29.38;19.15;;;;;;;6.54;100.00;100563.31;7396455;19;20011;-70
2022/12/21 10:54:05;;;;;;;27.17;18.92;;;;;;;6.54;100.00;100564.16;7393246;19;20037;-71
2022/12/21 10:56:37;;;;;;;28.10;17.77;;;;;;;6.54;100.00;100555.50;7394284;19;20035;-71
2022/12/21 10:59:15;;;;;;;30.48;18.67;;;;;;;6.56;100.00;100545.91;7393064;19;20027;-72
2022/12/21 11:01:43;;;;;;;28.60;18.40;;;;;;;6.57;100.00;100553.72;7391905;19;20014;-72
2022/12/21 11:04:16;;;;;;;29.55;17.48;;;;;;;6.59;100.00;100553.72;7393722;19;20074;-73
2022/12/21 11:06:58;;;;;;;27.17;18.48;;;;;;;6.61;100.00;100545.00;7392995;19;20151;-73
2022/12/21 11:09:42;;;;;;;28.75;16.63;;;;;;;6.63;100.00;100548.44;7394302;19;20469;-72
2022/12/21 11:12:21;;;;;;;27.17;17.92;;;;;;;6.63;100.00;100545.81;7393679;19;20506;-71
2022/12/21 11:14:50;;;;;;;27.85;17.35;;;;;;;6.68;100.00;100551.91;7394012;19;20033;-71
2022/12/21 11:17:31;;;;;;;30.75;18.48;;;;;;;6.71;100.00;100542.28;7392424;19;20018;-72
2022/12/21 11:20:07;;;;;;;26.77;16.92;;;;;;;6.74;100.00;100550.13;7394057;19;20377;-70
2022/12/21 11:22:36;;;;;;;29.65;18.02;;;;;;;6.74;100.00;100539.69;7393990;19;20359;-73
2022/12/21 11:25:15;;;;;;;28.17;17.42;;;;;;;6.77;100.00;100537.03;7394000;19;20014;-76
2022/12/21 11:27:47;;;;;;;22.40;15.73;;;;;;;6.78;100.00;100530.94;7392853;19;20015;-74
2022/12/21 11:30:22;;;;;;;28.15;17.65;;;;;;;6.81;100.00;100536.13;7393882;19;20392;-75
2022/12/21 11:32:53;;;;;;;26.85;16.38;;;;;;;6.84;100.00;100541.31;7394340;19;20035;-75
2022/12/21 11:35:23;;;;;;;25.35;15.93;;;;;;;6.87;100.00;100541.28;7393459;19;20086;-73
2022/12/21 11:37:56;;;;;;;27.13;16.95;;;;;;;6.90;100.00;100538.66;7392949;19;20419;-73
2022/12/21 11:40:29;;;;;;;27.50;17.45;;;;;;;6.94;100.00;100527.31;7396340;19;20031;-73
2022/12/21 11:43:05;;;;;;;24.60;15.80;;;;;;;6.97;100.00;100531.63;7400681;19;20518;-74
2022/12/21 11:45:44;;;;;;;21.48;14.73;;;;;;;6.99;100.00;100530.72;7400440;19;20081;-76